createdAt,value
2018-03-31T00:00:06.455Z,4.80
2018-03-31T00:02:33.477Z,4.70
2018-03-31T00:05:00.484Z,4.70
2018-03-31T00:07:27.484Z,4.70
2018-03-31T00:09:54.794Z,4.70
2018-03-31T00:12:21.806Z,4.70
2018-03-31T00:14:48.799Z,4.60
2018-03-31T00:17:15.806Z,4.60
2018-03-31T00:19:42.809Z,4.50
2018-03-31T00:22:09.802Z,4.50
2018-03-31T00:24:36.827Z,4.40
2018-03-31T00:27:04.735Z,4.40
2018-03-31T00:29:32.503Z,4.30
2018-03-31T00:31:59.532Z,4.30
2018-03-31T00:34:27.297Z,4.30
2018-03-31T00:36:55.070Z,4.30
2018-03-31T00:39:22.859Z,4.30
2018-03-31T00:41:49.870Z,4.20
2018-03-31T00:44:16.882Z,4.30
2018-03-31T00:46:44.496Z,4.30
2018-03-31T00:49:11.500Z,4.20
2018-03-31T00:51:38.492Z,4.20
2018-03-31T00:54:05.522Z,4.20
2018-03-31T00:56:32.583Z,4.20
2018-03-31T00:58:59.584Z,4.20
2018-03-31T01:01:26.606Z,4.20
2018-03-31T01:03:53.608Z,4.20
2018-03-31T01:06:20.644Z,4.20
2018-03-31T01:08:47.653Z,4.10
2018-03-31T01:11:14.659Z,4.10
2018-03-31T01:13:42.427Z,4.00
2018-03-31T01:16:10.226Z,3.90
2018-03-31T01:18:37.231Z,3.90
2018-03-31T01:21:04.999Z,3.80
2018-03-31T01:23:32.797Z,3.80
2018-03-31T01:25:59.796Z,3.80
2018-03-31T01:28:26.806Z,3.80
2018-03-31T01:30:53.835Z,3.80
2018-03-31T01:33:20.844Z,3.80
2018-03-31T01:35:47.843Z,3.70
2018-03-31T01:38:14.875Z,3.80
2018-03-31T01:40:41.879Z,3.70
2018-03-31T01:43:09.680Z,3.70
2018-03-31T01:45:36.694Z,3.60
2018-03-31T01:48:03.705Z,3.70
2018-03-31T01:50:30.690Z,3.60
2018-03-31T01:52:58.507Z,3.60
2018-03-31T01:55:25.506Z,3.60
2018-03-31T01:57:52.506Z,3.60
2018-03-31T02:00:19.509Z,3.60
2018-03-31T02:02:47.267Z,3.50
2018-03-31T02:05:15.050Z,3.50
2018-03-31T02:07:42.063Z,3.50
2018-03-31T02:10:09.839Z,3.40
2018-03-31T02:12:36.852Z,3.40
2018-03-31T02:15:03.855Z,3.40
2018-03-31T02:17:30.875Z,3.40
2018-03-31T02:19:57.886Z,3.30
2018-03-31T02:22:24.897Z,3.30
2018-03-31T02:24:51.908Z,3.30
2018-03-31T02:27:18.929Z,3.30
2018-03-31T02:29:45.950Z,3.20
2018-03-31T02:32:12.956Z,3.30
2018-03-31T02:34:39.963Z,3.20
2018-03-31T02:37:06.997Z,3.30
2018-03-31T02:39:33.996Z,3.20
2018-03-31T02:42:01.011Z,3.20
2018-03-31T02:44:28.032Z,3.20
2018-03-31T02:46:55.048Z,3.20
2018-03-31T02:49:22.811Z,3.10
2018-03-31T02:51:51.247Z,3.10
2018-03-31T02:54:18.244Z,3.10
2018-03-31T02:56:45.271Z,3.10
2018-03-31T02:59:12.273Z,3.00
2018-03-31T03:01:39.278Z,3.00
2018-03-31T03:04:07.056Z,3.00
2018-03-31T03:06:34.849Z,2.90
2018-03-31T03:09:01.916Z,2.90
2018-03-31T03:11:28.928Z,2.90
2018-03-31T03:13:55.936Z,2.90
2018-03-31T03:16:22.947Z,3.00
2018-03-31T03:18:49.953Z,3.00
2018-03-31T03:21:17.734Z,3.00
2018-03-31T03:23:44.768Z,3.00
2018-03-31T03:26:12.566Z,3.10
2018-03-31T03:28:39.576Z,3.00
2018-03-31T03:31:07.349Z,3.00
2018-03-31T03:33:35.132Z,3.00
2018-03-31T03:36:02.146Z,3.00
2018-03-31T03:38:29.922Z,3.00
2018-03-31T03:40:57.751Z,2.90
2018-03-31T03:43:24.755Z,2.90
2018-03-31T03:45:51.775Z,2.90
2018-03-31T03:48:19.536Z,3.00
2018-03-31T03:50:46.540Z,3.00
2018-03-31T03:53:13.572Z,3.10
2018-03-31T03:55:40.584Z,3.10
2018-03-31T03:58:07.593Z,3.00
2018-03-31T04:00:34.612Z,3.00
2018-03-31T04:03:01.622Z,3.00
2018-03-31T04:05:29.388Z,3.10
2018-03-31T04:07:57.184Z,3.10
2018-03-31T04:10:24.201Z,3.10
2018-03-31T04:12:51.996Z,3.10
2018-03-31T04:15:19.011Z,3.10
2018-03-31T04:17:46.778Z,3.10
2018-03-31T04:20:14.571Z,3.10
2018-03-31T04:22:41.573Z,3.10
2018-03-31T04:25:08.597Z,3.00
2018-03-31T04:27:35.616Z,3.00
2018-03-31T04:30:02.624Z,3.00
2018-03-31T04:32:29.644Z,3.10
2018-03-31T04:34:56.647Z,3.20
2018-03-31T04:37:23.684Z,3.20
2018-03-31T04:39:51.454Z,3.50
2018-03-31T04:42:18.466Z,3.50
2018-03-31T04:44:45.460Z,3.70
2018-03-31T04:47:12.471Z,3.80
2018-03-31T04:49:39.469Z,3.80
2018-03-31T04:52:06.488Z,3.70
2018-03-31T04:54:33.505Z,3.60
2018-03-31T04:57:00.515Z,3.60
2018-03-31T04:59:27.534Z,3.50
2018-03-31T05:01:54.548Z,3.70
2018-03-31T05:04:21.864Z,3.70
2018-03-31T05:06:48.878Z,3.60
2018-03-31T05:09:16.642Z,3.50
2018-03-31T05:11:43.670Z,3.50
2018-03-31T05:14:10.669Z,3.50
2018-03-31T05:16:37.725Z,3.60
2018-03-31T05:19:05.493Z,3.70
2018-03-31T05:21:32.517Z,3.70
2018-03-31T05:23:59.512Z,3.70
2018-03-31T05:26:26.546Z,3.70
2018-03-31T05:28:53.547Z,3.60
2018-03-31T05:31:20.575Z,3.60
2018-03-31T05:33:48.327Z,3.60
2018-03-31T05:36:15.330Z,3.60
2018-03-31T05:38:42.335Z,3.60
2018-03-31T05:41:10.158Z,3.60
2018-03-31T05:43:37.221Z,3.60
2018-03-31T05:46:04.291Z,3.70
2018-03-31T05:48:32.100Z,3.70
2018-03-31T05:50:59.931Z,3.70
2018-03-31T05:53:27.827Z,3.80
2018-03-31T05:55:54.869Z,3.80
2018-03-31T05:58:21.885Z,3.70
2018-03-31T06:00:49.654Z,3.60
2018-03-31T06:03:17.441Z,3.60
2018-03-31T06:05:44.462Z,3.60
2018-03-31T06:08:12.253Z,3.60
2018-03-31T06:10:39.266Z,3.60
2018-03-31T06:13:06.264Z,3.70
2018-03-31T06:15:33.283Z,3.80
2018-03-31T06:18:00.298Z,3.70
2018-03-31T06:20:27.314Z,3.70
2018-03-31T06:22:54.342Z,3.80
2018-03-31T06:25:21.359Z,3.70
2018-03-31T06:27:49.147Z,3.40
2018-03-31T06:30:16.160Z,3.40
2018-03-31T06:32:43.164Z,3.40
2018-03-31T06:35:10.182Z,3.50
2018-03-31T06:37:37.203Z,3.50
2018-03-31T06:40:04.987Z,3.50
2018-03-31T06:42:32.017Z,3.50
2018-03-31T06:44:59.782Z,3.50
2018-03-31T06:47:27.559Z,3.50
2018-03-31T06:49:54.588Z,3.50
2018-03-31T06:52:21.595Z,3.60
2018-03-31T06:54:48.599Z,3.50
2018-03-31T06:57:15.630Z,3.60
2018-03-31T06:59:42.635Z,3.60
2018-03-31T07:02:09.661Z,3.60
2018-03-31T07:04:36.667Z,3.70
2018-03-31T07:07:03.684Z,3.70
2018-03-31T07:09:30.695Z,3.80
2018-03-31T07:11:57.703Z,3.80
2018-03-31T07:14:24.699Z,3.90
2018-03-31T07:16:51.716Z,3.90
2018-03-31T07:19:18.720Z,4.00
2018-03-31T07:21:45.720Z,4.00
2018-03-31T07:24:12.723Z,4.10
2018-03-31T07:26:39.739Z,4.00
2018-03-31T07:29:06.747Z,4.10
2018-03-31T07:31:34.536Z,4.20
2018-03-31T07:34:01.541Z,4.10
2018-03-31T07:36:28.560Z,4.20
2018-03-31T07:38:55.596Z,4.20
2018-03-31T07:41:22.603Z,4.20
2018-03-31T07:43:50.375Z,4.30
2018-03-31T07:46:17.400Z,4.30
2018-03-31T07:48:44.414Z,4.40
2018-03-31T07:51:11.416Z,4.50
2018-03-31T07:53:39.185Z,4.60
2018-03-31T07:56:06.960Z,4.70
2018-03-31T07:58:33.962Z,4.70
2018-03-31T08:01:01.038Z,4.80
2018-03-31T08:03:27.987Z,4.80
2018-03-31T08:05:54.997Z,4.80
2018-03-31T08:08:21.991Z,4.80
2018-03-31T08:10:49.763Z,4.90
2018-03-31T08:13:16.783Z,4.90
2018-03-31T08:15:44.559Z,4.90
2018-03-31T08:18:12.315Z,4.90
2018-03-31T08:20:40.090Z,5.00
2018-03-31T08:23:07.926Z,5.00
2018-03-31T08:25:34.882Z,5.00
2018-03-31T08:28:01.911Z,5.10
2018-03-31T08:30:28.935Z,5.10
2018-03-31T08:32:55.957Z,5.20
2018-03-31T08:35:22.995Z,5.30
2018-03-31T08:37:50.756Z,5.30
2018-03-31T08:40:18.532Z,5.40
2018-03-31T08:42:45.542Z,5.40
2018-03-31T08:45:12.572Z,5.50
2018-03-31T08:47:39.592Z,5.60
2018-03-31T08:50:06.599Z,5.60
2018-03-31T08:52:34.437Z,5.80
2018-03-31T08:55:01.440Z,5.80
2018-03-31T08:57:28.440Z,5.90
2018-03-31T08:59:55.456Z,6.00
2018-03-31T09:02:22.449Z,6.10
2018-03-31T09:04:49.462Z,6.20
2018-03-31T09:07:16.560Z,6.20
2018-03-31T09:09:44.325Z,6.40
2018-03-31T09:12:12.127Z,6.50
2018-03-31T09:14:39.172Z,6.50
2018-03-31T09:17:06.194Z,6.60
2018-03-31T09:19:33.201Z,6.80
2018-03-31T09:22:00.265Z,6.80
2018-03-31T09:24:28.056Z,7.00
2018-03-31T09:26:55.064Z,6.90
2018-03-31T09:29:22.147Z,7.10
2018-03-31T09:31:49.143Z,7.20
2018-03-31T09:34:16.166Z,7.40
2018-03-31T09:36:43.182Z,7.60
2018-03-31T09:39:10.962Z,8.30
2018-03-31T09:41:37.990Z,8.30
2018-03-31T09:44:05.781Z,8.60
2018-03-31T09:46:32.774Z,8.50
2018-03-31T09:48:59.789Z,8.70
2018-03-31T09:51:26.776Z,8.80
2018-03-31T09:53:53.775Z,8.90
2018-03-31T09:56:20.764Z,8.70
2018-03-31T09:58:47.762Z,8.80
2018-03-31T10:01:17.725Z,8.80
2018-03-31T10:03:44.819Z,8.90
2018-03-31T10:06:11.824Z,9.20
2018-03-31T10:08:38.891Z,9.30
2018-03-31T10:11:06.672Z,10.10
2018-03-31T10:13:34.459Z,10.40
2018-03-31T10:16:01.461Z,10.40
2018-03-31T10:18:28.468Z,10.50
2018-03-31T10:20:55.499Z,10.60
2018-03-31T10:23:22.537Z,10.70
2018-03-31T10:25:49.527Z,10.70
2018-03-31T10:28:16.527Z,10.70
2018-03-31T10:30:43.570Z,10.50
2018-03-31T10:33:10.586Z,10.20
2018-03-31T10:35:37.579Z,10.10
2018-03-31T10:38:04.588Z,10.00
2018-03-31T10:40:31.587Z,10.20
2018-03-31T10:45:50.228Z,10.60
2018-03-31T10:48:17.250Z,10.60
2018-03-31T10:50:45.038Z,10.60
2018-03-31T10:53:12.812Z,10.70
2018-03-31T10:55:39.832Z,10.60
2018-03-31T10:58:06.872Z,10.80
2018-03-31T11:00:34.662Z,11.30
2018-03-31T11:03:02.443Z,11.40
2018-03-31T11:05:29.499Z,11.40
2018-03-31T11:07:57.271Z,11.10
2018-03-31T11:10:24.386Z,11.00
2018-03-31T11:12:51.476Z,11.00
2018-03-31T11:15:19.310Z,11.00
2018-03-31T11:17:46.362Z,11.00
2018-03-31T11:20:13.386Z,11.10
2018-03-31T11:22:41.173Z,11.10
2018-03-31T11:25:08.188Z,11.10
2018-03-31T11:27:35.191Z,10.90
2018-03-31T11:30:02.205Z,10.80
2018-03-31T11:32:30.015Z,10.60
2018-03-31T11:34:57.023Z,10.60
2018-03-31T11:37:24.059Z,10.50
2018-03-31T11:39:51.824Z,10.40
2018-03-31T11:42:19.630Z,10.30
2018-03-31T11:44:46.617Z,10.30
2018-03-31T11:47:13.632Z,10.30
2018-03-31T11:49:40.721Z,10.30
2018-03-31T11:52:08.609Z,10.20
2018-03-31T11:54:35.614Z,10.10
2018-03-31T11:57:02.633Z,10.30
2018-03-31T11:59:29.702Z,10.50
2018-03-31T12:01:56.723Z,10.60
2018-03-31T12:04:23.728Z,10.80
2018-03-31T12:06:51.529Z,10.70
2018-03-31T12:09:18.619Z,10.70
2018-03-31T12:11:45.633Z,10.80
2018-03-31T12:14:12.659Z,10.70
2018-03-31T12:16:40.033Z,10.50
2018-03-31T12:19:07.044Z,10.40
2018-03-31T12:21:34.828Z,10.30
2018-03-31T12:24:01.857Z,10.30
2018-03-31T12:26:29.689Z,10.20
2018-03-31T12:28:56.701Z,10.20
2018-03-31T12:31:23.713Z,10.20
2018-03-31T12:33:51.477Z,10.10
2018-03-31T12:36:19.260Z,10.00
2018-03-31T12:38:46.414Z,10.00
2018-03-31T12:41:13.452Z,10.00
2018-03-31T12:43:40.485Z,10.00
2018-03-31T12:46:08.267Z,10.00
2018-03-31T12:48:35.296Z,10.00
2018-03-31T12:51:03.092Z,10.00
2018-03-31T12:53:30.123Z,10.00
2018-03-31T12:55:57.912Z,10.00
2018-03-31T12:58:25.061Z,9.90
2018-03-31T13:00:52.084Z,9.90
2018-03-31T13:03:19.090Z,9.90
2018-03-31T13:05:46.106Z,9.90
2018-03-31T13:08:13.138Z,9.80
2018-03-31T13:10:40.168Z,9.80
2018-03-31T13:13:08.061Z,9.70
2018-03-31T13:15:35.068Z,9.70
2018-03-31T13:18:02.100Z,9.70
2018-03-31T13:20:29.180Z,9.60
2018-03-31T13:22:57.020Z,9.60
2018-03-31T13:25:24.017Z,9.60
2018-03-31T13:27:51.007Z,9.50
2018-03-31T13:30:18.034Z,9.50
2018-03-31T13:32:45.037Z,9.50
2018-03-31T13:35:12.809Z,9.50
2018-03-31T13:37:39.826Z,9.50
2018-03-31T13:40:06.838Z,9.50
2018-03-31T13:42:33.858Z,9.50
2018-03-31T13:45:00.860Z,9.50
2018-03-31T13:47:27.905Z,9.60
2018-03-31T13:49:54.961Z,9.60
2018-03-31T13:52:21.968Z,9.70
2018-03-31T13:54:48.951Z,9.70
2018-03-31T13:57:15.971Z,9.50
2018-03-31T13:59:43.043Z,9.50
2018-03-31T14:02:10.066Z,9.50
2018-03-31T14:04:37.076Z,9.40
2018-03-31T14:07:04.847Z,9.20
2018-03-31T14:09:31.847Z,9.20
2018-03-31T14:11:58.869Z,9.40
2018-03-31T14:14:25.875Z,9.30
2018-03-31T14:16:52.892Z,9.30
2018-03-31T14:19:19.887Z,9.30
2018-03-31T14:21:48.478Z,9.10
2018-03-31T14:24:16.181Z,9.10
2018-03-31T14:26:43.199Z,9.20
2018-03-31T14:29:10.212Z,9.30
2018-03-31T14:31:37.228Z,9.20
2018-03-31T14:34:04.240Z,9.20
2018-03-31T14:36:31.248Z,9.20
2018-03-31T14:38:59.021Z,9.10
2018-03-31T14:41:26.041Z,9.10
2018-03-31T14:43:53.854Z,9.10
2018-03-31T14:46:20.859Z,9.10
2018-03-31T14:48:47.856Z,9.10
2018-03-31T14:51:14.890Z,9.20
2018-03-31T14:53:41.894Z,9.20
2018-03-31T14:56:08.965Z,9.40
2018-03-31T14:58:36.730Z,9.30
2018-03-31T15:01:04.508Z,9.30
2018-03-31T15:03:31.560Z,9.30
2018-03-31T15:05:58.563Z,9.30
2018-03-31T15:08:25.571Z,9.20
2018-03-31T15:10:52.591Z,9.20
2018-03-31T15:13:20.432Z,9.00
2018-03-31T15:15:47.441Z,9.00
2018-03-31T15:18:14.448Z,9.00
2018-03-31T15:20:42.216Z,9.10
2018-03-31T15:23:09.223Z,9.10
2018-03-31T15:25:36.267Z,9.10
2018-03-31T15:28:03.259Z,9.00
2018-03-31T15:30:30.275Z,9.00
2018-03-31T15:32:57.311Z,8.90
2018-03-31T15:35:24.334Z,8.90
2018-03-31T15:37:51.355Z,8.90
2018-03-31T15:40:18.359Z,8.80
2018-03-31T15:42:45.363Z,8.90
2018-03-31T15:45:12.392Z,8.90
2018-03-31T15:47:39.388Z,8.90
2018-03-31T15:50:06.395Z,8.90
2018-03-31T15:52:33.400Z,8.90
2018-03-31T15:55:00.546Z,8.90
2018-03-31T15:57:28.420Z,8.80
2018-03-31T15:59:56.196Z,8.70
2018-03-31T16:02:24.094Z,8.70
2018-03-31T16:04:51.125Z,8.60
2018-03-31T16:07:18.172Z,8.60
2018-03-31T16:09:45.312Z,8.50
2018-03-31T16:12:13.293Z,8.80
2018-03-31T16:14:40.450Z,8.80
2018-03-31T16:17:07.854Z,8.70
2018-03-31T16:19:36.987Z,8.50
2018-03-31T16:22:05.108Z,8.40
2018-03-31T16:24:32.396Z,8.40
2018-03-31T16:26:59.482Z,8.40
2018-03-31T16:29:26.485Z,8.30
2018-03-31T16:31:55.022Z,8.10
2018-03-31T16:34:22.040Z,8.10
2018-03-31T16:36:49.114Z,8.10
2018-03-31T16:39:16.853Z,8.00
2018-03-31T16:41:45.782Z,8.20
2018-03-31T16:44:13.266Z,8.10
2018-03-31T16:46:41.620Z,8.10
2018-03-31T16:49:09.703Z,8.00
2018-03-31T16:51:36.810Z,8.00
2018-03-31T16:54:04.269Z,8.00
2018-03-31T16:56:31.294Z,7.90
2018-03-31T16:58:59.636Z,7.70
2018-03-31T17:01:26.839Z,7.60
2018-03-31T17:03:54.719Z,7.50
2018-03-31T17:06:21.847Z,7.40
2018-03-31T17:08:50.386Z,7.20
2018-03-31T17:11:18.398Z,7.20
2018-03-31T17:13:45.532Z,7.20
2018-03-31T17:16:13.736Z,7.20
2018-03-31T17:18:40.907Z,7.20
2018-03-31T17:21:08.879Z,7.20
2018-03-31T17:23:35.895Z,7.20
2018-03-31T17:26:03.693Z,7.20
2018-03-31T17:28:34.259Z,7.20
2018-03-31T17:31:01.327Z,7.10
2018-03-31T17:33:29.136Z,7.00
2018-03-31T17:35:56.177Z,7.10
2018-03-31T17:38:23.255Z,7.00
2018-03-31T17:40:50.403Z,7.00
2018-03-31T17:43:17.498Z,7.00
2018-03-31T17:45:45.301Z,6.80
2018-03-31T17:48:12.341Z,6.80
2018-03-31T17:50:39.388Z,6.80
2018-03-31T17:53:06.424Z,6.70
2018-03-31T17:55:33.452Z,6.60
2018-03-31T17:58:01.243Z,6.60
2018-03-31T18:00:28.262Z,6.60
2018-03-31T18:02:56.059Z,6.70
2018-03-31T18:05:23.083Z,6.60
2018-03-31T18:07:50.866Z,6.60
2018-03-31T18:10:18.089Z,6.60
2018-03-31T18:12:45.885Z,6.60
2018-03-31T18:15:12.890Z,6.50
2018-03-31T18:17:39.892Z,6.50
2018-03-31T18:20:07.393Z,6.40
2018-03-31T18:22:34.414Z,6.40
2018-03-31T18:25:01.442Z,6.40
2018-03-31T18:27:28.463Z,6.40
2018-03-31T18:29:56.249Z,6.30
2018-03-31T18:32:23.273Z,6.30
2018-03-31T18:34:51.035Z,6.20
2018-03-31T18:37:19.187Z,6.20
2018-03-31T18:39:46.197Z,6.10
2018-03-31T18:42:13.218Z,6.20
2018-03-31T18:44:40.330Z,6.20
2018-03-31T18:47:07.387Z,6.10
2018-03-31T18:49:34.376Z,6.00
2018-03-31T18:52:01.400Z,6.00
2018-03-31T18:54:29.180Z,6.00
2018-03-31T18:56:56.260Z,6.00
2018-03-31T18:59:23.265Z,5.90
2018-03-31T19:01:50.278Z,5.90
2018-03-31T19:04:17.409Z,5.90
2018-03-31T19:06:44.390Z,5.80
2018-03-31T19:09:11.412Z,5.80
2018-03-31T19:11:38.483Z,5.80
2018-03-31T19:14:06.257Z,5.80
2018-03-31T19:16:41.668Z,5.80
2018-03-31T19:19:08.686Z,5.80
2018-03-31T19:21:35.703Z,5.60
2018-03-31T19:24:02.745Z,5.60
2018-03-31T19:26:30.523Z,5.60
2018-03-31T19:28:57.536Z,5.60
2018-03-31T19:31:24.571Z,5.70
2018-03-31T19:33:51.606Z,5.60
2018-03-31T19:36:18.652Z,5.60
2018-03-31T19:38:45.657Z,5.60
2018-03-31T19:41:12.674Z,5.50
2018-03-31T19:43:39.683Z,5.40
2018-03-31T19:46:06.699Z,5.30
2018-03-31T19:48:33.726Z,5.30
2018-03-31T19:51:01.648Z,5.20
2018-03-31T19:53:28.679Z,5.10
2018-03-31T19:55:56.553Z,5.10
2018-03-31T19:58:24.284Z,4.90
2018-03-31T20:00:51.416Z,4.90
2018-03-31T20:03:18.418Z,4.80
2018-03-31T20:05:45.428Z,4.80
2018-03-31T20:08:13.207Z,4.80
2018-03-31T20:10:40.243Z,4.80
2018-03-31T20:13:08.016Z,4.80
2018-03-31T20:15:35.028Z,4.70
2018-03-31T20:18:02.059Z,4.80
2018-03-31T20:20:29.085Z,4.80
2018-03-31T20:22:56.084Z,4.80
2018-03-31T20:25:23.890Z,4.70
2018-03-31T20:27:50.896Z,4.60
2018-03-31T20:30:18.735Z,4.60
2018-03-31T20:32:46.641Z,4.50
2018-03-31T20:35:14.493Z,4.40
2018-03-31T20:37:41.542Z,4.40
2018-03-31T20:40:09.331Z,4.40
2018-03-31T20:42:36.452Z,4.40
2018-03-31T20:45:04.235Z,4.30
2018-03-31T20:47:32.023Z,4.30
2018-03-31T20:49:59.792Z,4.30
2018-03-31T20:52:26.818Z,4.20
2018-03-31T20:54:54.587Z,4.20
2018-03-31T20:57:21.616Z,4.10
2018-03-31T20:59:49.419Z,4.10
2018-03-31T21:02:16.436Z,4.10
2018-03-31T21:04:44.239Z,4.00
2018-03-31T21:07:11.285Z,4.00
2018-03-31T21:09:38.323Z,4.00
2018-03-31T21:12:05.330Z,4.00
2018-03-31T21:14:33.125Z,4.00
2018-03-31T21:17:00.157Z,4.00
2018-03-31T21:19:27.921Z,4.00
2018-03-31T21:21:55.723Z,4.00
2018-03-31T21:24:22.752Z,4.00
2018-03-31T21:26:49.816Z,4.00
2018-03-31T21:29:16.842Z,3.90
2018-03-31T21:31:43.858Z,3.80
2018-03-31T21:34:11.641Z,3.70
2018-03-31T21:36:39.437Z,3.70
2018-03-31T21:39:06.452Z,3.70
2018-03-31T21:41:34.231Z,3.60
2018-03-31T21:44:01.231Z,3.60
2018-03-31T21:46:28.271Z,3.70
2018-03-31T21:48:55.389Z,3.60
2018-03-31T21:51:22.398Z,3.60
2018-03-31T21:53:50.181Z,3.50
2018-03-31T21:56:17.192Z,3.50
2018-03-31T21:58:44.267Z,3.60
2018-03-31T22:01:12.168Z,3.50
2018-03-31T22:03:39.171Z,3.50
2018-03-31T22:06:06.203Z,3.50
2018-03-31T22:08:33.221Z,3.60
2018-03-31T22:11:00.246Z,3.60
2018-03-31T22:13:32.791Z,3.50
2018-03-31T22:15:59.822Z,3.50
2018-03-31T22:18:26.827Z,3.50
2018-03-31T22:20:53.854Z,3.50
2018-03-31T22:23:20.855Z,3.50
2018-03-31T22:25:47.876Z,3.50
2018-03-31T22:28:14.887Z,3.60
2018-03-31T22:30:42.693Z,3.50
2018-03-31T22:33:09.747Z,3.50
2018-03-31T22:35:36.814Z,3.40
2018-03-31T22:38:03.828Z,3.40
2018-03-31T22:40:30.844Z,3.40
2018-03-31T22:42:58.614Z,3.40
2018-03-31T22:45:25.776Z,3.40
2018-03-31T22:47:52.868Z,3.30
2018-03-31T22:50:19.897Z,3.90
2018-03-31T22:52:46.908Z,3.60
2018-03-31T22:55:13.913Z,3.40
2018-03-31T22:57:40.936Z,3.40
2018-03-31T23:00:07.963Z,3.40
2018-03-31T23:02:34.982Z,3.30
2018-03-31T23:05:02.768Z,3.20
2018-03-31T23:07:29.791Z,3.20
2018-03-31T23:09:56.811Z,3.20
2018-03-31T23:12:23.844Z,3.10
2018-03-31T23:14:50.889Z,3.10
2018-03-31T23:17:17.921Z,3.10
2018-03-31T23:19:44.924Z,3.00
2018-03-31T23:22:11.998Z,3.00
2018-03-31T23:24:39.003Z,2.90
2018-03-31T23:27:06.030Z,2.90
2018-03-31T23:29:33.088Z,3.00
2018-03-31T23:32:00.944Z,2.90
2018-03-31T23:34:27.958Z,2.90
2018-03-31T23:36:54.974Z,2.90
2018-03-31T23:39:22.780Z,2.80
2018-03-31T23:41:49.897Z,2.80
2018-03-31T23:44:17.764Z,2.80
2018-03-31T23:46:44.873Z,2.80
2018-03-31T23:49:12.004Z,2.80
2018-03-31T23:51:39.148Z,2.80
2018-03-31T23:54:06.251Z,2.80
2018-03-31T23:56:34.124Z,2.80
2018-03-31T23:59:02.008Z,2.80
